Time;durP1;ratioP1;P1;durP2;ratioP2;P2;SDS_P1;SDS_P2;PMS_P1;PMS_P2;Temp;Humidity;BMP_temperature;BMP_pressure;BME280_temperature;BME280_humidity;BME280_pressure;Samples;Min_cycle;Max_cycle;Signal;HPM_P1;HPM_P2
2024/02/08 06:02:35;;;;;;;1.05;0.40;;;10.00;91.70;;;;;;4022594;29;20056;-78
2024/02/08 06:04:37;;;;;;;1.73;0.50;;;10.00;91.80;;;;;;4024697;29;20045;-76
2024/02/08 06:06:48;;;;;;;1.58;0.50;;;10.00;91.80;;;;;;4038451;29;20049;-76
2024/02/08 06:08:56;;;;;;;0.77;0.30;;;10.00;91.70;;;;;;4038800;29;20056;-75
2024/02/08 06:10:56;;;;;;;0.73;0.28;;;10.10;91.40;;;;;;4038454;29;20064;-78
2024/02/08 06:12:59;;;;;;;2.08;0.50;;;10.10;91.40;;;;;;4037708;29;20049;-77
2024/02/08 06:15:14;;;;;;;1.65;0.50;;;10.10;91.80;;;;;;4037665;29;20085;-76
2024/02/08 06:17:23;;;;;;;0.75;0.40;;;10.10;92.00;;;;;;4038174;29;20129;-78
2024/02/08 06:19:34;;;;;;;1.70;0.50;;;10.10;92.10;;;;;;4037940;29;20181;-78
2024/02/08 06:21:41;;;;;;;1.75;0.43;;;10.10;92.30;;;;;;4037866;29;20468;-76
2024/02/08 06:23:45;;;;;;;0.75;0.30;;;10.10;92.50;;;;;;4037738;29;20165;-78
2024/02/08 06:26:27;;;;;;;0.65;0.30;;;10.10;92.70;;;;;;4037678;29;20559;-78
2024/02/08 06:28:24;;;;;;;1.20;0.50;;;10.10;92.80;;;;;;4037441;29;20413;-77
2024/02/08 06:30:30;;;;;;;2.70;0.60;;;10.10;92.90;;;;;;4037733;29;20139;-76
2024/02/08 06:32:43;;;;;;;1.55;0.50;;;10.00;92.90;;;;;;4037507;29;20049;-76
2024/02/08 06:34:47;;;;;;;1.85;0.60;;;10.00;93.20;;;;;;4022910;29;20054;-75
2024/02/08 06:36:58;;;;;;;1.65;0.60;;;10.00;93.40;;;;;;4021982;29;20049;-77
2024/02/08 06:39:19;;;;;;;1.48;0.40;;;10.00;93.40;;;;;;4022157;29;20071;-76
2024/02/08 06:41:38;;;;;;;2.78;0.70;;;10.00;93.60;;;;;;4022007;29;20052;-75
2024/02/08 06:43:57;;;;;;;1.85;0.68;;;10.00;93.60;;;;;;4022283;29;20053;-76
2024/02/08 06:46:14;;;;;;;2.85;0.73;;;9.90;93.70;;;;;;4022538;29;20060;-79
2024/02/08 07:37:17;;;;;;;2.30;0.80;;;10.00;93.90;;;;;;4058325;29;20051;-78
2024/02/08 07:39:34;;;;;;;2.00;0.80;;;10.00;94.10;;;;;;4057462;29;20052;-78
2024/02/08 07:41:40;;;;;;;2.13;0.80;;;10.00;94.30;;;;;;4056970;29;20091;-76
2024/02/08 07:43:54;;;;;;;1.30;0.60;;;9.90;94.20;;;;;;4058334;29;20087;-75
2024/02/08 07:46:03;;;;;;;1.27;0.47;;;9.90;94.40;;;;;;4058379;29;20049;-79
2024/02/08 07:48:08;;;;;;;1.63;0.60;;;9.90;94.50;;;;;;4058590;29;20095;-78
2024/02/08 07:50:10;;;;;;;1.05;0.50;;;9.90;94.60;;;;;;4057807;29;20074;-77
2024/02/08 07:52:19;;;;;;;1.80;0.60;;;9.90;94.70;;;;;;4057902;29;20179;-78
2024/02/08 07:54:22;;;;;;;0.88;0.35;;;9.90;94.70;;;;;;4056924;29;20125;-77
2024/02/08 07:56:46;;;;;;;3.63;0.70;;;9.90;94.90;;;;;;4055461;29;20458;-75
2024/02/08 07:58:48;;;;;;;1.67;0.50;;;9.90;94.80;;;;;;4055520;29;20439;-77
2024/02/08 08:00:56;;;;;;;1.70;0.60;;;9.90;94.70;;;;;;4054949;29;20057;-77
2024/02/08 08:02:59;;;;;;;1.40;0.40;;;9.90;94.40;;;;;;4057105;29;20056;-79
2024/02/08 08:05:03;;;;;;;1.45;0.50;;;9.90;94.60;;;;;;4055412;29;20451;-77
2024/02/08 08:07:07;;;;;;;0.82;0.30;;;10.00;94.50;;;;;;4057241;29;20120;-78
2024/02/08 08:09:19;;;;;;;1.33;0.50;;;10.00;94.40;;;;;;4056808;29;20045;-77
2024/02/08 08:11:25;;;;;;;1.85;0.35;;;10.10;94.20;;;;;;4054685;29;20052;-78
2024/02/08 08:13:50;;;;;;;0.60;0.32;;;10.10;94.10;;;;;;4037813;29;20087;-78
2024/02/08 08:16:35;;;;;;;0.93;0.30;;;10.10;94.10;;;;;;4040280;29;20057;-78
2024/02/08 08:18:23;;;;;;;1.52;0.50;;;10.10;94.00;;;;;;4037511;29;20049;-77
2024/02/08 08:22:54;;;;;;;1.35;0.40;;;10.20;93.90;;;;;;4037821;29;20117;-77
2024/02/08 08:25:10;;;;;;;1.60;0.40;;;10.20;93.80;;;;;;4037183;29;20072;-76
2024/02/08 08:27:26;;;;;;;1.35;0.50;;;10.30;93.80;;;;;;4037422;29;20381;-77
2024/02/08 08:29:27;;;;;;;1.60;0.57;;;10.30;93.50;;;;;;4037349;29;20087;-78
2024/02/08 08:31:51;;;;;;;6.07;0.60;;;10.40;93.70;;;;;;4037980;29;20108;-75
2024/02/08 08:33:58;;;;;;;0.95;0.40;;;10.40;93.80;;;;;;4037731;29;20453;-77
2024/02/08 08:36:05;;;;;;;1.33;0.40;;;10.40;93.50;;;;;;4038014;29;20060;-77
2024/02/08 08:38:28;;;;;;;2.05;0.60;;;10.40;93.60;;;;;;4038956;29;20056;-77
2024/02/08 08:40:37;;;;;;;1.65;0.65;;;10.50;93.40;;;;;;4039559;29;20053;-77
2024/02/08 08:42:42;;;;;;;2.17;0.50;;;10.60;93.30;;;;;;4039306;29;20505;-78
2024/02/08 08:44:48;;;;;;;0.80;0.40;;;10.60;93.00;;;;;;4039217;29;20058;-77
2024/02/08 08:46:52;;;;;;;1.38;0.40;;;10.60;92.90;;;;;;4040462;29;20087;-77
2024/02/08 08:48:54;;;;;;;1.50;0.52;;;10.70;92.70;;;;;;4038823;29;20052;-76
2024/02/08 08:50:57;;;;;;;3.85;1.63;;;10.70;92.70;;;;;;4039454;29;20056;-77
2024/02/08 08:53:07;;;;;;;1.52;0.40;;;10.80;92.40;;;;;;4041504;29;20049;-78
2024/02/08 08:55:16;;;;;;;0.68;0.30;;;10.90;92.00;;;;;;4043988;29;20087;-78
2024/02/08 08:57:18;;;;;;;2.42;0.60;;;10.90;91.90;;;;;;4053976;29;20059;-78
2024/02/08 08:59:22;;;;;;;1.63;0.50;;;10.90;91.70;;;;;;4053666;29;20117;-79
2024/02/08 09:01:23;;;;;;;1.05;0.40;;;11.00;91.50;;;;;;4054039;29;20124;-78
2024/02/08 09:03:26;;;;;;;1.52;0.68;;;11.00;91.50;;;;;;4054048;29;20486;-77
2024/02/08 09:05:36;;;;;;;1.50;0.45;;;11.10;91.40;;;;;;4053967;29;20124;-77
2024/02/08 09:07:38;;;;;;;1.30;0.50;;;11.10;90.90;;;;;;4054068;29;20451;-78
2024/02/08 09:09:57;;;;;;;1.50;0.45;;;11.20;90.70;;;;;;4055380;29;20049;-76
2024/02/08 09:11:59;;;;;;;1.60;0.50;;;11.30;90.90;;;;;;4053797;29;20505;-77
2024/02/08 09:14:10;;;;;;;1.67;0.60;;;11.30;90.80;;;;;;4051360;29;20111;-78
2024/02/08 09:16:36;;;;;;;1.25;0.45;;;11.30;90.90;;;;;;4053692;29;20048;-77
2024/02/08 09:19:04;;;;;;;1.63;0.45;;;11.30;90.70;;;;;;4053022;29;20502;-77
2024/02/08 09:21:06;;;;;;;2.28;0.40;;;11.40;90.40;;;;;;4054517;29;20048;-78
2024/02/08 09:23:12;;;;;;;1.45;0.47;;;11.30;90.30;;;;;;4052116;29;20056;-77
2024/02/08 09:25:14;;;;;;;1.50;0.40;;;11.40;90.20;;;;;;4053414;29;20052;-79
2024/02/08 09:27:16;;;;;;;0.93;0.35;;;11.40;90.20;;;;;;4053117;29;20411;-77
2024/02/08 09:29:23;;;;;;;2.35;0.50;;;11.50;90.00;;;;;;4052513;29;20111;-78
2024/02/08 09:31:38;;;;;;;2.03;0.50;;;11.50;89.30;;;;;;4053269;29;20118;-78
2024/02/08 09:33:47;;;;;;;1.10;0.40;;;11.50;88.60;;;;;;4054373;29;20048;-79
2024/02/08 09:35:49;;;;;;;1.10;0.50;;;11.60;88.40;;;;;;4053868;29;20143;-78
2024/02/08 09:37:50;;;;;;;2.20;0.60;;;11.60;88.40;;;;;;4055433;29;20123;-76
2024/02/08 09:39:58;;;;;;;1.63;0.50;;;11.60;89.30;;;;;;4052974;29;20081;-77
2024/02/08 09:42:07;;;;;;;1.30;0.30;;;11.60;89.20;;;;;;4054224;29;20076;-78
2024/02/08 09:44:12;;;;;;;1.55;0.63;;;11.60;88.00;;;;;;4053248;29;20107;-79
2024/02/08 09:46:49;;;;;;;0.63;0.30;;;11.70;88.20;;;;;;4052703;29;20056;-78
2024/02/08 09:48:46;;;;;;;1.95;0.50;;;11.80;87.70;;;;;;4051975;29;20063;-77
2024/02/08 09:50:50;;;;;;;0.70;0.40;;;11.70;87.70;;;;;;4054019;29;20063;-77
2024/02/08 09:52:56;;;;;;;0.25;0.10;;;11.80;87.20;;;;;;4051971;29;20059;-78
2024/02/08 09:55:08;;;;;;;1.25;0.40;;;11.80;87.20;;;;;;4051451;29;20135;-79
2024/02/08 09:57:21;;;;;;;1.17;0.40;;;11.90;87.40;;;;;;4052821;29;20044;-77
2024/02/08 09:59:50;;;;;;;0.65;0.28;;;11.90;86.80;;;;;;4052433;29;20053;-77
2024/02/08 10:01:56;;;;;;;0.90;0.32;;;11.90;86.90;;;;;;4052756;29;20060;-77
2024/02/08 10:04:05;;;;;;;0.75;0.30;;;11.90;86.60;;;;;;4052476;29;20486;-78
2024/02/08 10:06:12;;;;;;;0.52;0.20;;;12.00;86.50;;;;;;4053419;29;20048;-77
2024/02/08 10:08:27;;;;;;;0.65;0.22;;;12.00;86.70;;;;;;4053740;29;20057;-78
2024/02/08 10:10:29;;;;;;;0.85;0.30;;;11.90;86.50;;;;;;4052635;29;20482;-77
2024/02/08 10:12:40;;;;;;;2.97;0.45;;;11.90;86.50;;;;;;4051840;29;20056;-78
2024/02/08 10:14:42;;;;;;;0.85;0.30;;;11.90;85.80;;;;;;4051346;29;20139;-79
2024/02/08 10:16:47;;;;;;;0.70;0.30;;;11.90;85.90;;;;;;4051594;29;20052;-78
2024/02/08 10:18:57;;;;;;;0.88;0.30;;;11.90;85.50;;;;;;4054061;29;20053;-79
2024/02/08 10:21:12;;;;;;;0.82;0.40;;;11.90;85.80;;;;;;4049951;29;20124;-79
2024/02/08 10:27:56;;;;;;;0.28;0.20;;;12.10;85.30;;;;;;4051635;29;20059;-76
2024/02/08 10:30:05;;;;;;;0.70;0.20;;;12.10;84.80;;;;;;4051495;29;20517;-77
2024/02/08 10:32:08;;;;;;;1.02;0.30;;;12.00;85.90;;;;;;4051846;29;20053;-77
2024/02/08 10:34:08;;;;;;;0.80;0.30;;;12.10;84.90;;;;;;4051426;29;20422;-77
2024/02/08 10:36:15;;;;;;;0.68;0.30;;;12.00;84.70;;;;;;4051373;29;20135;-77
2024/02/08 10:38:29;;;;;;;0.80;0.38;;;12.00;85.10;;;;;;4051179;29;20067;-78
2024/02/08 10:40:32;;;;;;;1.48;0.30;;;12.00;85.20;;;;;;4051972;29;20053;-77
2024/02/08 10:42:38;;;;;;;0.23;0.20;;;12.00;84.20;;;;;;4054180;29;20048;-77
2024/02/08 10:44:44;;;;;;;0.85;0.28;;;12.00;84.90;;;;;;4054352;29;20316;-77
2024/02/08 10:46:46;;;;;;;1.13;0.30;;;12.00;85.10;;;;;;4054238;29;20060;-79
2024/02/08 10:48:49;;;;;;;0.47;0.25;;;12.00;85.20;;;;;;4054375;29;20060;-78
2024/02/08 10:50:51;;;;;;;1.17;0.40;;;11.90;86.00;;;;;;4055379;29;20527;-79
2024/02/08 10:53:00;;;;;;;1.13;0.40;;;11.90;86.90;;;;;;4054588;29;20052;-79
2024/02/08 10:55:18;;;;;;;1.98;0.70;;;11.90;87.90;;;;;;4055281;29;20459;-78
2024/02/08 10:57:57;;;;;;;0.80;0.30;;;11.90;88.60;;;;;;4054606;29;20088;-78
2024/02/08 10:59:59;;;;;;;1.63;0.52;;;11.80;88.80;;;;;;4053661;29;20060;-79
2024/02/08 11:02:02;;;;;;;2.58;0.98;;;11.90;89.00;;;;;;4053872;29;20060;-77
2024/02/08 11:04:17;;;;;;;0.60;0.32;;;12.00;88.70;;;;;;4054319;29;20060;-77
2024/02/08 11:06:32;;;;;;;0.77;0.30;;;12.00;88.00;;;;;;4054002;29;20062;-78
2024/02/08 11:08:50;;;;;;;0.30;0.15;;;12.10;88.30;;;;;;4054017;29;20371;-77
2024/02/08 11:10:58;;;;;;;0.38;0.10;;;12.00;87.50;;;;;;4053786;29;20057;-75
2024/02/08 11:13:10;;;;;;;1.83;0.30;;;12.00;87.50;;;;;;4051776;29;20216;-75
2024/02/08 11:15:17;;;;;;;1.83;0.30;;;12.10;87.50;;;;;;4053310;29;20056;-78
2024/02/08 11:17:23;;;;;;;0.43;0.20;;;12.20;87.20;;;;;;4053541;29;20048;-78
2024/02/08 11:19:24;;;;;;;1.63;0.45;;;12.20;87.00;;;;;;4053413;29;20108;-75
2024/02/08 11:21:42;;;;;;;1.30;0.40;;;12.20;86.50;;;;;;4053542;29;20400;-74
2024/02/08 11:23:52;;;;;;;0.50;0.30;;;12.30;86.60;;;;;;4053314;29;20436;-77
2024/02/08 11:25:56;;;;;;;0.57;0.22;;;12.30;86.00;;;;;;4053525;29;20056;-78
2024/02/08 11:27:59;;;;;;;0.82;0.35;;;12.30;86.00;;;;;;4053566;29;20079;-75
2024/02/08 11:30:10;;;;;;;1.50;0.55;;;12.40;85.60;;;;;;4053431;29;20061;-78
2024/02/08 11:32:17;;;;;;;2.90;1.23;;;12.40;85.10;;;;;;4053416;29;20100;-76
2024/02/08 11:34:24;;;;;;;0.77;0.40;;;12.40;85.30;;;;;;4053450;29;20112;-77
2024/02/08 11:36:34;;;;;;;1.83;0.45;;;12.40;84.80;;;;;;4053440;29;20057;-77
2024/02/08 11:38:36;;;;;;;1.52;0.40;;;12.40;84.80;;;;;;4053851;29;20120;-78
2024/02/08 11:40:41;;;;;;;0.90;0.40;;;12.40;84.80;;;;;;4053560;29;20053;-78
2024/02/08 11:42:44;;;;;;;0.73;0.30;;;12.50;85.10;;;;;;4053174;29;20108;-77
2024/02/08 11:44:46;;;;;;;1.42;0.30;;;12.40;84.40;;;;;;4053176;29;20060;-79
2024/02/08 11:46:51;;;;;;;0.82;0.40;;;12.40;84.40;;;;;;4053728;29;20093;-77
2024/02/08 11:48:53;;;;;;;1.60;0.45;;;12.50;84.70;;;;;;4053779;29;20052;-76
2024/02/08 11:50:58;;;;;;;0.93;0.35;;;12.50;84.30;;;;;;4053154;29;20052;-77
2024/02/08 11:53:04;;;;;;;1.58;0.38;;;12.50;84.10;;;;;;4054845;29;20561;-77
2024/02/08 11:55:08;;;;;;;;;;;12.50;83.80;;;;;;4054508;29;20056;-77
2024/02/08 11:57:13;;;;;;;2.00;0.60;;;12.50;84.10;;;;;;4053346;29;19987;-76
2024/02/08 11:59:15;;;;;;;2.08;0.50;;;12.50;84.10;;;;;;4053640;29;20321;-74
2024/02/08 12:01:23;;;;;;;1.73;0.50;;;12.50;83.60;;;;;;4052966;29;20057;-76
2024/02/08 12:03:26;;;;;;;2.45;0.70;;;12.50;83.80;;;;;;4053840;29;20057;-75
2024/02/08 12:05:30;;;;;;;3.25;0.57;;;12.50;83.60;;;;;;4053393;29;20056;-76
2024/02/08 12:07:31;;;;;;;3.83;0.50;;;12.50;83.60;;;;;;4052845;29;20052;-76
2024/02/08 12:09:33;;;;;;;2.88;0.65;;;12.60;83.40;;;;;;4052837;29;20056;-78
2024/02/08 12:11:35;;;;;;;3.03;0.80;;;12.60;83.20;;;;;;4052546;29;20052;-76
2024/02/08 12:13:39;;;;;;;2.75;0.70;;;12.70;83.00;;;;;;4050866;29;20120;-79
2024/02/08 12:15:44;;;;;;;2.15;0.70;;;12.80;82.60;;;;;;4052448;29;20494;-79
2024/02/08 12:17:48;;;;;;;3.30;0.65;;;12.90;81.80;;;;;;4052618;29;20099;-79
2024/02/08 12:19:59;;;;;;;2.72;0.77;;;13.00;81.40;;;;;;4052843;29;20053;-76
2024/02/08 12:22:03;;;;;;;4.95;1.50;;;13.00;80.90;;;;;;4052680;29;20053;-79
2024/02/08 12:24:06;;;;;;;3.65;0.75;;;13.10;80.80;;;;;;4035621;29;20613;-78
2024/02/08 12:26:09;;;;;;;3.40;0.80;;;13.20;80.30;;;;;;4052302;29;20072;-79
2024/02/08 12:28:11;;;;;;;4.82;0.90;;;13.30;79.80;;;;;;4052232;29;20115;-78
2024/02/08 12:30:22;;;;;;;4.28;0.93;;;13.30;79.20;;;;;;4052448;29;20052;-81
2024/02/08 12:32:27;;;;;;;3.38;0.95;;;13.30;79.20;;;;;;4052437;29;20057;-78
2024/02/08 12:34:32;;;;;;;3.40;0.97;;;13.40;78.80;;;;;;4052444;29;20104;-78
2024/02/08 12:36:35;;;;;;;3.70;1.10;;;13.40;78.10;;;;;;4051985;29;20052;-78
2024/02/08 12:38:37;;;;;;;5.47;0.98;;;13.40;77.70;;;;;;4052307;29;20052;-76
2024/02/08 12:40:40;;;;;;;5.45;1.00;;;13.50;77.80;;;;;;4051958;29;20410;-78
2024/02/08 12:42:42;;;;;;;4.93;1.10;;;13.50;77.20;;;;;;4051924;29;20470;-80
2024/02/08 12:44:48;;;;;;;5.53;1.00;;;13.50;77.20;;;;;;4052281;29;20422;-76
2024/02/08 12:46:55;;;;;;;3.67;1.10;;;13.50;77.40;;;;;;4052277;29;20060;-79
2024/02/08 12:48:58;;;;;;;4.43;0.82;;;13.40;77.50;;;;;;4052197;29;20476;-78
2024/02/08 12:51:03;;;;;;;4.70;0.90;;;13.40;77.80;;;;;;4052168;29;20104;-77
2024/02/08 12:53:06;;;;;;;6.63;1.33;;;13.40;77.90;;;;;;4052389;29;20079;-79
2024/02/08 12:55:09;;;;;;;6.63;0.95;;;13.30;78.30;;;;;;4052183;29;20163;-81
2024/02/08 12:57:12;;;;;;;5.88;1.50;;;13.30;77.20;;;;;;4052352;29;20147;-76
2024/02/08 12:59:19;;;;;;;7.72;1.45;;;13.30;77.00;;;;;;4052465;29;20064;-79
2024/02/08 13:01:21;;;;;;;6.25;1.50;;;13.30;77.10;;;;;;4052046;29;20061;-77
2024/02/08 13:03:26;;;;;;;5.70;1.15;;;13.30;76.20;;;;;;4051251;29;20060;-78
2024/02/08 13:05:36;;;;;;;8.77;1.55;;;13.30;76.60;;;;;;4052042;29;20088;-78
2024/02/08 13:07:38;;;;;;;7.63;1.50;;;13.20;76.10;;;;;;4052115;29;20064;-76
2024/02/08 13:09:39;;;;;;;8.00;1.60;;;13.20;75.30;;;;;;4051823;29;20104;-76
2024/02/08 13:11:44;;;;;;;8.93;1.85;;;13.30;75.90;;;;;;4051814;29;20049;-78
2024/02/08 13:13:48;;;;;;;8.95;1.63;;;13.30;75.20;;;;;;4050281;29;20122;-78
2024/02/08 13:15:52;;;;;;;7.68;1.50;;;13.30;74.50;;;;;;4051629;29;20060;-78
2024/02/08 13:17:56;;;;;;;7.72;1.73;;;13.40;74.30;;;;;;4051821;29;20049;-78
2024/02/08 13:19:59;;;;;;;12.13;2.08;;;13.40;73.60;;;;;;4051834;29;20095;-79
2024/02/08 13:22:01;;;;;;;10.10;2.13;;;13.60;73.20;;;;;;4051606;29;20107;-78
2024/02/08 13:24:07;;;;;;;10.32;2.03;;;13.70;72.70;;;;;;4051252;29;20049;-78
2024/02/08 13:26:10;;;;;;;8.60;2.15;;;13.70;73.10;;;;;;4051592;29;20052;-78
2024/02/08 13:28:12;;;;;;;9.80;2.17;;;13.70;72.60;;;;;;4051612;29;20053;-77
2024/02/08 13:30:15;;;;;;;11.75;2.30;;;13.70;71.70;;;;;;4051624;29;20136;-78
2024/02/08 13:32:17;;;;;;;14.35;2.15;;;13.70;71.60;;;;;;4052277;29;20106;-76
2024/02/08 13:34:19;;;;;;;13.13;2.35;;;13.60;70.10;;;;;;4051633;29;20124;-77
2024/02/08 13:36:25;;;;;;;12.35;2.33;;;13.50;70.10;;;;;;4051163;29;20056;-78
2024/02/08 13:38:30;;;;;;;11.63;2.47;;;13.50;70.60;;;;;;4051789;29;20531;-79
2024/02/08 13:40:31;;;;;;;11.10;2.05;;;13.60;70.90;;;;;;4051656;29;20177;-77
2024/02/08 13:42:33;;;;;;;15.57;2.53;;;13.70;71.00;;;;;;4052028;29;20089;-75
2024/02/08 13:44:35;;;;;;;11.65;2.00;;;13.80;70.20;;;;;;4051149;29;20092;-76
2024/02/08 13:46:39;;;;;;;8.65;2.28;;;13.80;70.30;;;;;;4051488;29;20739;-77
2024/02/08 13:48:40;;;;;;;11.45;2.65;;;13.90;70.20;;;;;;4051227;29;20100;-77
2024/02/08 13:50:44;;;;;;;10.75;2.47;;;13.90;70.00;;;;;;4051439;29;20095;-76
2024/02/08 13:52:48;;;;;;;13.18;2.65;;;13.90;69.60;;;;;;4051326;29;20525;-77
2024/02/08 13:54:50;;;;;;;10.57;2.42;;;13.90;70.10;;;;;;4051450;29;20159;-78
2024/02/08 13:56:53;;;;;;;12.68;2.70;;;13.80;69.00;;;;;;4052385;29;20056;-77
2024/02/08 13:59:00;;;;;;;10.60;2.47;;;13.80;69.00;;;;;;4051941;29;20060;-79
2024/02/08 14:01:02;;;;;;;11.57;2.60;;;13.70;68.80;;;;;;4051450;29;20079;-77
2024/02/08 14:03:04;;;;;;;10.30;2.55;;;13.70;69.30;;;;;;4053104;29;20052;-77
2024/02/08 14:05:16;;;;;;;16.05;2.65;;;13.70;69.30;;;;;;4052455;29;20087;-76
2024/02/08 14:07:18;;;;;;;16.50;2.85;;;13.70;69.20;;;;;;4051546;29;20104;-76
2024/02/08 14:09:23;;;;;;;12.30;2.97;;;13.80;69.00;;;;;;4052376;29;20052;-77
2024/02/08 14:11:25;;;;;;;16.35;3.58;;;13.90;68.00;;;;;;4050925;29;20108;-76
2024/02/08 14:13:34;;;;;;;11.82;2.75;;;14.00;68.00;;;;;;4049484;29;20076;-77
2024/02/08 14:15:45;;;;;;;15.60;2.78;;;14.00;67.70;;;;;;4054499;29;20056;-78
2024/02/08 14:17:54;;;;;;;12.75;2.95;;;15.30;65.40;;;;;;4054257;29;20143;-78
2024/02/08 14:19:55;;;;;;;11.43;2.83;;;15.60;63.40;;;;;;4054414;29;20101;-79
2024/02/08 14:21:58;;;;;;;16.48;3.35;;;15.70;62.80;;;;;;4054161;29;20061;-78
2024/02/08 14:24:01;;;;;;;16.73;2.95;;;15.60;62.10;;;;;;4054212;29;20052;-78
2024/02/08 14:26:31;;;;;;;11.60;2.50;;;15.20;63.50;;;;;;4054739;29;20140;-76
2024/02/08 14:28:32;;;;;;;13.65;3.15;;;15.10;62.30;;;;;;4055837;29;20414;-78
2024/02/08 14:30:34;;;;;;;14.90;2.88;;;14.60;65.30;;;;;;4056793;29;20055;-76
2024/02/08 14:32:36;;;;;;;12.82;2.72;;;14.40;66.00;;;;;;4057215;29;20052;-77
2024/02/08 14:34:39;;;;;;;17.10;3.00;;;14.30;66.60;;;;;;4056490;29;20060;-77
2024/02/08 14:36:42;;;;;;;14.50;2.90;;;14.10;67.50;;;;;;4056145;29;20104;-76
2024/02/08 14:38:45;;;;;;;10.05;2.95;;;14.00;68.20;;;;;;4055264;29;20059;-76
2024/02/08 14:40:47;;;;;;;14.68;2.88;;;13.90;68.50;;;;;;4054606;29;20065;-77
2024/02/08 14:42:50;;;;;;;16.15;3.40;;;13.80;69.00;;;;;;4054571;29;20056;-78
2024/02/08 14:44:53;;;;;;;9.95;2.83;;;13.80;69.20;;;;;;4054937;29;20379;-78
2024/02/08 14:46:56;;;;;;;14.25;3.13;;;13.70;69.00;;;;;;4053908;29;20049;-78
2024/02/08 14:49:03;;;;;;;12.23;2.92;;;13.70;69.60;;;;;;4053843;29;20563;-78
2024/02/08 14:51:29;;;;;;;17.02;3.13;;;13.70;69.90;;;;;;4053983;29;20464;-78
2024/02/08 14:53:32;;;;;;;13.52;3.45;;;13.60;69.90;;;;;;4053728;29;20151;-78
2024/02/08 14:55:35;;;;;;;12.85;2.60;;;13.60;70.20;;;;;;4053923;29;20053;-79
2024/02/08 14:57:42;;;;;;;15.90;3.03;;;13.60;70.30;;;;;;4053950;29;20052;-79
2024/02/08 14:59:49;;;;;;;16.80;3.60;;;13.60;70.20;;;;;;4053517;29;20064;-77
2024/02/08 15:01:52;;;;;;;13.82;2.97;;;13.60;70.10;;;;;;4053513;29;20060;-79
2024/02/08 15:03:58;;;;;;;16.42;3.35;;;13.50;70.00;;;;;;4053860;29;20112;-79
2024/02/08 15:05:59;;;;;;;16.48;3.65;;;13.60;70.30;;;;;;4054654;29;20163;-78
2024/02/08 15:08:29;;;;;;;14.50;3.30;;;13.60;69.80;;;;;;4064209;29;20040;-77
2024/02/08 15:10:43;;;;;;;18.63;3.50;;;13.50;70.20;;;;;;4070252;29;20493;-78
2024/02/08 15:12:51;;;;;;;13.82;3.17;;;13.50;70.40;;;;;;4068329;29;20056;-78
2024/02/08 15:15:03;;;;;;;20.83;4.38;;;13.50;70.70;;;;;;4070271;29;20155;-77
2024/02/08 15:17:08;;;;;;;15.55;3.30;;;13.40;70.60;;;;;;4040383;29;20049;-78
2024/02/08 15:19:09;;;;;;;14.10;3.40;;;13.40;70.70;;;;;;4040076;29;20052;-78
2024/02/08 15:21:11;;;;;;;14.35;3.13;;;13.40;70.70;;;;;;4039265;29;20549;-80
2024/02/08 15:23:31;;;;;;;14.70;3.80;;;13.30;70.90;;;;;;4039382;29;20060;-78
2024/02/08 15:25:34;;;;;;;21.98;4.05;;;13.30;70.70;;;;;;4039462;29;20049;-79
2024/02/08 15:27:51;;;;;;;19.70;4.03;;;13.30;70.50;;;;;;4040259;29;20052;-78
2024/02/08 15:30:10;;;;;;;17.67;4.07;;;13.30;70.70;;;;;;4049378;29;20045;-78
2024/02/08 15:32:17;;;;;;;16.67;3.40;;;13.30;70.60;;;;;;4043805;29;20059;-77
2024/02/08 15:34:40;;;;;;;17.88;2.60;;;13.30;70.40;;;;;;4044341;29;20466;-78
2024/02/08 15:36:47;;;;;;;14.40;2.97;;;13.40;70.40;;;;;;4043714;29;20088;-76
2024/02/08 15:39:00;;;;;;;19.08;3.22;;;13.40;70.10;;;;;;4038826;29;20049;-79
2024/02/08 15:41:09;;;;;;;17.15;3.45;;;13.40;70.10;;;;;;4042926;29;20048;-79
2024/02/08 15:43:15;;;;;;;14.93;2.97;;;13.40;70.30;;;;;;4045223;29;20064;-78
2024/02/08 15:45:21;;;;;;;17.40;2.67;;;13.30;70.10;;;;;;4039096;29;20057;-78
2024/02/08 15:47:22;;;;;;;17.45;3.03;;;13.30;70.20;;;;;;4044922;29;20044;-79
2024/02/08 15:49:28;;;;;;;19.38;3.08;;;13.30;70.50;;;;;;4038555;29;20460;-78
2024/02/08 15:51:37;;;;;;;22.60;3.42;;;13.30;70.30;;;;;;4038726;29;20126;-78
2024/02/08 15:53:48;;;;;;;17.13;3.60;;;13.30;70.40;;;;;;4044799;29;20101;-80
2024/02/08 15:55:55;;;;;;;18.05;3.70;;;13.20;70.30;;;;;;4043735;29;20435;-78
2024/02/08 15:58:16;;;;;;;18.65;3.55;;;13.20;70.30;;;;;;4047892;29;20056;-79
2024/02/08 16:00:33;;;;;;;18.50;3.85;;;13.20;70.30;;;;;;4037985;29;20055;-78
2024/02/08 16:02:35;;;;;;;20.38;3.92;;;13.10;70.20;;;;;;4045900;29;20049;-79
2024/02/08 16:04:49;;;;;;;20.48;3.70;;;13.20;70.50;;;;;;4038377;29;20057;-78
2024/02/08 16:06:53;;;;;;;28.70;8.77;;;13.10;71.20;;;;;;4042021;29;20607;-78
2024/02/08 16:08:57;;;;;;;21.83;4.95;;;13.20;70.60;;;;;;4044793;29;20083;-77
2024/02/08 16:11:18;;;;;;;20.02;3.95;;;13.10;70.80;;;;;;4038741;29;20073;-77
2024/02/08 16:13:34;;;;;;;20.70;4.15;;;13.10;71.20;;;;;;4040607;29;20096;-77
2024/02/08 16:15:55;;;;;;;18.17;3.78;;;13.10;70.60;;;;;;4043451;29;20052;-78
2024/02/08 16:18:03;;;;;;;16.73;3.85;;;13.10;70.50;;;;;;4038281;29;20055;-76
2024/02/08 16:20:08;;;;;;;17.88;3.83;;;13.10;70.80;;;;;;4045702;29;20060;-79
2024/02/08 16:22:20;;;;;;;17.25;4.20;;;13.10;70.70;;;;;;4038181;29;20048;-76
2024/02/08 16:24:22;;;;;;;20.40;4.13;;;13.00;70.70;;;;;;4037820;29;20116;-78
2024/02/08 16:26:28;;;;;;;26.25;4.60;;;13.00;70.50;;;;;;4044107;29;20057;-79
2024/02/08 16:28:29;;;;;;;19.17;3.95;;;13.00;70.50;;;;;;4037636;29;20084;-78
2024/02/08 16:30:33;;;;;;;18.77;4.07;;;13.00;70.40;;;;;;4043379;29;20060;-78
2024/02/08 16:32:41;;;;;;;17.40;3.88;;;13.00;70.50;;;;;;4049056;29;20108;-79
2024/02/08 16:34:50;;;;;;;23.90;4.32;;;12.90;70.40;;;;;;4044138;29;20040;-77
2024/02/08 16:36:52;;;;;;;18.70;3.95;;;12.90;70.20;;;;;;4038909;29;20060;-78
2024/02/08 16:38:56;;;;;;;15.60;3.83;;;12.90;70.10;;;;;;4037840;29;20045;-79
2024/02/08 16:41:04;;;;;;;19.33;4.10;;;12.90;69.80;;;;;;4038039;29;20046;-77
2024/02/08 16:43:12;;;;;;;22.77;4.63;;;12.90;69.70;;;;;;4044833;29;20112;-78
2024/02/08 16:45:27;;;;;;;22.10;4.22;;;12.90;69.80;;;;;;4042737;29;20060;-76
2024/02/08 16:47:34;;;;;;;21.95;4.10;;;12.90;69.30;;;;;;4037552;29;20060;-77
2024/02/08 16:49:42;;;;;;;14.82;3.72;;;12.90;69.40;;;;;;4038442;29;20572;-79
2024/02/08 16:51:47;;;;;;;18.80;4.68;;;12.90;69.20;;;;;;4043596;29;20048;-77
2024/02/08 16:54:01;;;;;;;19.85;5.75;;;12.90;69.20;;;;;;4044175;29;20069;-80
2024/02/08 16:56:03;;;;;;;15.13;3.78;;;12.90;68.90;;;;;;4042768;29;20056;-80
2024/02/08 16:58:19;;;;;;;21.05;3.50;;;12.90;68.90;;;;;;4039449;29;20096;-76
2024/02/08 17:00:38;;;;;;;17.67;4.72;;;12.90;68.90;;;;;;4037373;29;20061;-79
2024/02/08 17:02:49;;;;;;;20.13;3.85;;;12.90;69.00;;;;;;4045588;29;20485;-79
2024/02/08 17:04:57;;;;;;;18.30;3.40;;;12.90;68.90;;;;;;4052400;29;20056;-79
2024/02/08 17:07:10;;;;;;;16.23;4.00;;;12.80;68.90;;;;;;4037227;29;20510;-78
2024/02/08 17:09:24;;;;;;;18.25;3.67;;;12.90;69.00;;;;;;4040950;29;20060;-78
2024/02/08 17:11:31;;;;;;;20.70;4.30;;;12.90;68.90;;;;;;4044540;29;20139;-78
2024/02/08 17:13:40;;;;;;;20.02;4.00;;;12.80;68.90;;;;;;4040276;29;20048;-79
2024/02/08 17:15:55;;;;;;;16.75;3.33;;;12.80;69.00;;;;;;4040663;29;20053;-80
2024/02/08 17:18:05;;;;;;;16.30;3.47;;;12.80;69.00;;;;;;4037548;29;20053;-78
2024/02/08 17:20:22;;;;;;;19.00;3.72;;;12.80;69.00;;;;;;4041075;29;20334;-78
2024/02/08 17:23:01;;;;;;;21.00;3.47;;;12.80;69.00;;;;;;4044594;29;20064;-80
2024/02/08 17:25:23;;;;;;;20.08;4.40;;;12.80;68.90;;;;;;4041668;29;20053;-77
2024/02/08 17:27:48;;;;;;;16.42;4.10;;;12.80;69.00;;;;;;4049249;29;20109;-79
2024/02/08 17:29:51;;;;;;;16.90;4.28;;;12.80;69.00;;;;;;4046307;29;20124;-77
2024/02/08 17:31:56;;;;;;;16.80;3.35;;;12.80;69.10;;;;;;4041258;29;20104;-78
2024/02/08 17:34:00;;;;;;;19.92;4.15;;;12.80;69.10;;;;;;4039495;29;20060;-77
2024/02/08 17:36:11;;;;;;;19.20;3.83;;;12.80;69.20;;;;;;4043180;29;20053;-77
2024/02/08 17:38:19;;;;;;;21.98;3.58;;;12.80;69.30;;;;;;4037340;29;20514;-78
2024/02/08 17:40:29;;;;;;;22.67;4.40;;;12.80;69.30;;;;;;4040581;29;20080;-79
2024/02/08 17:42:33;;;;;;;17.45;3.42;;;12.80;69.40;;;;;;4043778;29;20109;-77
2024/02/08 17:44:37;;;;;;;17.15;3.72;;;12.80;69.40;;;;;;4047636;29;20140;-78
2024/02/08 17:46:41;;;;;;;25.08;5.05;;;12.80;69.50;;;;;;4036777;29;20064;-78
2024/02/08 17:48:42;;;;;;;36.72;13.85;;;12.70;69.50;;;;;;4036667;29;20135;-79
2024/02/08 17:50:47;;;;;;;21.75;4.95;;;12.70;69.40;;;;;;4040098;29;20102;-79
2024/02/08 17:52:51;;;;;;;20.13;4.88;;;12.70;70.30;;;;;;4042038;29;20057;-79
2024/02/08 17:54:56;;;;;;;16.27;4.25;;;12.70;69.50;;;;;;4043702;29;20426;-79
2024/02/08 17:57:02;;;;;;;17.93;4.20;;;12.70;69.40;;;;;;4042574;29;20463;-78
2024/02/08 17:59:05;;;;;;;14.15;3.75;;;12.70;69.50;;;;;;4042058;29;20057;-75